Time;durP1;ratioP1;P1;durP2;ratioP2;P2;SDS_P1;SDS_P2;PMS_P1;PMS_P2;Temp;Humidity;BMP_temperature;BMP_pressure;BME280_temperature;BME280_humidity;BME280_pressure;Samples;Min_cycle;Max_cycle;Signal;HPM_P1;HPM_P2
2022/09/15 00:01:57;;;;;;;0.38;0.20;;;;;;;18.78;92.99;100254.50;20717448;28;20049;-74
2022/09/15 00:12:00;;;;;;;0.20;0.20;;;;;;;18.23;92.91;100178.31;20718503;28;20087;-74
2022/09/15 00:22:01;;;;;;;0.10;0.10;;;;;;;18.78;92.95;100257.22;20717755;28;20053;-75
2022/09/15 00:32:03;;;;;;;0.20;0.20;;;;;;;18.77;92.94;100258.22;20716673;28;20077;-75
2022/09/15 00:42:05;;;;;;;0.10;0.10;;;;;;;18.76;92.82;100260.06;20713338;28;20495;-75
2022/09/15 00:52:10;;;;;;;0.10;0.10;;;;;;;18.76;93.04;100270.00;20697510;28;20045;-74
2022/09/15 01:02:17;;;;;;;0.20;0.20;;;;;;;18.76;92.82;100275.41;20694583;28;20050;-75
2022/09/15 01:12:19;;;;;;;0.15;0.13;;;;;;;18.75;92.78;100273.72;20711057;28;20112;-74
2022/09/15 01:22:49;;;;;;;0.30;0.20;;;;;;;18.75;92.75;100276.41;20680256;28;20481;-74
2022/09/15 01:33:05;;;;;;;0.10;0.10;;;;;;;18.75;92.89;100265.63;20713064;28;20077;-75
2022/09/15 01:43:08;;;;;;;0.40;0.22;;;;;;;18.75;92.70;100273.72;20713640;28;20045;-75
2022/09/15 01:53:18;;;;;;;0.32;0.30;;;;;;;18.69;92.86;100267.94;20704275;28;20083;-74
2022/09/15 02:03:32;;;;;;;0.20;0.20;;;;;;;18.74;92.81;100266.63;20773202;28;20053;-74
2022/09/15 02:13:47;;;;;;;0.20;0.20;;;;;;;18.28;92.81;100192.16;20807361;28;20404;-74
2022/09/15 02:23:53;;;;;;;0.40;0.20;;;;;;;18.74;92.68;100275.53;20789777;28;20124;-75
2022/09/15 02:33:58;;;;;;;0.55;0.20;;;;;;;18.73;92.68;100265.75;20763170;28;20045;-74
2022/09/15 02:43:59;;;;;;;;;;;;;;;18.74;92.85;100282.81;20688994;28;20053;-75
2022/09/15 02:54:01;;;;;;;0.10;0.10;;;;;;;18.66;92.83;100276.34;20703269;28;19972;-75
2022/09/15 03:04:03;;;;;;;0.10;0.10;;;;;;;18.71;92.64;100283.94;20718724;28;20054;-74
2022/09/15 03:14:05;;;;;;;0.25;0.20;;;;;;;18.69;92.83;100286.81;20701731;28;20119;-74
2022/09/15 03:24:07;;;;;;;0.17;0.17;;;;;;;18.72;92.81;100298.28;20718291;28;20038;-74
2022/09/15 03:34:08;;;;;;;0.20;0.20;;;;;;;18.69;92.72;100303.00;20684205;28;20502;-74
2022/09/15 03:44:10;;;;;;;0.20;0.20;;;;;;;18.71;92.91;100297.44;20699548;28;20045;-75
2022/09/15 03:54:11;;;;;;;0.20;0.20;;;;;;;18.70;92.79;100302.00;20698442;28;20042;-74
2022/09/15 04:04:13;;;;;;;0.10;0.10;;;;;;;18.66;92.63;100279.03;20715025;28;20056;-75
2022/09/15 04:14:15;;;;;;;0.10;0.10;;;;;;;18.55;92.70;100252.31;20714089;28;20046;-75
2022/09/15 04:24:16;;;;;;;0.10;0.10;;;;;;;18.69;92.51;100281.44;20713929;28;20389;-76
2022/09/15 04:34:18;;;;;;;0.17;0.17;;;;;;;18.69;92.65;100278.72;20714018;28;20120;-74
2022/09/15 04:44:19;;;;;;;0.10;0.10;;;;;;;18.68;92.58;100277.03;20680997;28;20049;-75
2022/09/15 04:54:21;;;;;;;0.10;0.10;;;;;;;18.68;92.81;100284.25;20678335;28;20137;-74
2022/09/15 05:04:22;;;;;;;0.10;0.10;;;;;;;18.69;92.62;100292.22;20711698;28;20046;-74
2022/09/15 05:14:24;;;;;;;0.10;0.10;;;;;;;18.69;92.66;100304.81;20694035;28;20072;-74
2022/09/15 05:24:25;;;;;;;0.20;0.20;;;;;;;18.68;92.69;100290.50;20722738;28;20109;-74
2022/09/15 05:34:27;;;;;;;0.10;0.10;;;;;;;18.67;92.68;100282.56;20737277;28;20045;-75
2022/09/15 05:44:30;;;;;;;0.28;0.20;;;;;;;18.67;92.78;100283.44;20737184;28;20410;-75
2022/09/15 05:54:31;;;;;;;0.10;0.10;;;;;;;18.67;92.68;100287.97;20735883;28;20054;-75
2022/09/15 06:04:33;;;;;;;0.20;0.20;;;;;;;18.67;92.78;100293.34;20718753;28;20058;-75
2022/09/15 06:14:35;;;;;;;0.10;0.10;;;;;;;18.67;92.53;100283.44;20734302;28;20054;-75
2022/09/15 06:24:36;;;;;;;0.65;0.20;;;;;;;18.66;92.62;100287.13;20734810;28;20056;-75
2022/09/15 06:34:38;;;;;;;0.20;0.10;;;;;;;18.53;92.63;100270.50;20730958;28;20061;-75
2022/09/15 06:44:39;;;;;;;0.30;0.30;;;;;;;18.51;92.54;100278.75;20689653;28;20054;-74
2022/09/15 06:54:41;;;;;;;0.20;0.20;;;;;;;18.67;92.48;100309.53;20720668;28;20503;-74
2022/09/15 07:04:43;;;;;;;0.25;0.10;;;;;;;18.68;92.42;100316.63;20719934;28;20042;-74
2022/09/15 07:14:44;;;;;;;0.20;0.20;;;;;;;18.69;92.46;100329.09;20719323;28;20046;-74
2022/09/15 07:24:46;;;;;;;0.55;0.20;;;;;;;18.68;92.45;100330.97;20717980;28;20054;-74
2022/09/15 07:34:47;;;;;;;0.10;0.10;;;;;;;18.68;92.43;100336.34;20692814;28;20384;-74
2022/09/15 07:44:49;;;;;;;0.30;0.30;;;;;;;18.69;92.50;100338.03;20699075;28;20054;-75
2022/09/15 07:54:51;;;;;;;0.13;0.10;;;;;;;18.69;92.57;100346.13;20698667;28;20046;-75
2022/09/15 08:04:52;;;;;;;0.25;0.20;;;;;;;18.70;92.36;100366.69;20715264;28;20061;-75
2022/09/15 08:14:54;;;;;;;0.10;0.10;;;;;;;18.65;92.35;100373.53;20714299;28;20107;-75
2022/09/15 08:24:55;;;;;;;0.10;0.10;;;;;;;18.73;92.18;100394.34;20714482;28;20053;-74
2022/09/15 08:34:57;;;;;;;0.08;0.08;;;;;;;18.71;92.26;100386.41;20794664;28;20059;-75
2022/09/15 08:45:03;;;;;;;0.20;0.20;;;;;;;18.77;92.13;100385.78;20794161;28;20107;-74
2022/09/15 08:55:14;;;;;;;0.30;0.17;;;;;;;18.80;91.94;100400.81;20774102;28;20057;-74
2022/09/15 09:05:31;;;;;;;0.10;0.10;;;;;;;18.81;91.72;100387.19;20775342;28;20045;-74
2022/09/15 09:15:41;;;;;;;0.20;0.20;;;;;;;18.80;91.80;100390.91;20792446;28;20053;-74
2022/09/15 09:25:43;;;;;;;0.10;0.10;;;;;;;18.83;91.69;100403.22;20793032;28;20049;-75
2022/09/15 09:35:48;;;;;;;0.30;0.15;;;;;;;18.81;91.74;100403.38;20795477;28;20056;-75
2022/09/15 09:45:50;;;;;;;0.23;0.13;;;;;;;18.60;91.64;100368.63;20794045;28;20050;-74
2022/09/15 09:55:54;;;;;;;0.20;0.20;;;;;;;18.64;91.68;100375.41;20793094;28;20048;-74
2022/09/15 10:06:21;;;;;;;0.65;0.65;;;;;;;18.80;91.66;100400.81;20711669;28;20108;-75
2022/09/15 10:16:23;;;;;;;0.47;0.20;;;;;;;18.80;91.74;100393.59;20805486;28;20121;-74
2022/09/15 10:26:33;;;;;;;0.10;0.10;;;;;;;18.80;91.74;100408.91;20807005;28;20079;-75
2022/09/15 10:36:34;;;;;;;0.10;0.10;;;;;;;18.81;91.48;100402.50;20726447;28;20400;-75
2022/09/15 10:47:02;;;;;;;0.40;0.20;;;;;;;18.81;91.66;100392.59;20725620;28;20049;-74
2022/09/15 10:57:32;;;;;;;0.15;0.15;;;;;;;18.82;91.49;100409.59;20794847;28;20041;-75
2022/09/15 11:07:48;;;;;;;0.20;0.10;;;;;;;18.81;91.63;100432.19;20803685;28;20049;-74
2022/09/15 11:18:28;;;;;;;0.70;0.20;;;;;;;18.64;91.41;100405.06;20802190;28;20088;-74
2022/09/15 11:28:40;;;;;;;0.40;0.20;;;;;;;18.80;91.67;100425.97;20699703;28;20049;-75
2022/09/15 11:38:51;;;;;;;0.22;0.20;;;;;;;18.80;91.56;100434.03;20720046;28;20050;-74
2022/09/15 11:49:00;;;;;;;0.40;0.20;;;;;;;18.81;91.55;100445.66;20801514;28;20069;-74
2022/09/15 11:59:11;;;;;;;0.32;0.20;;;;;;;18.81;91.60;100440.28;20783527;28;20045;-74
2022/09/15 12:09:16;;;;;;;0.20;0.20;;;;;;;18.80;91.54;100431.34;20797064;28;20103;-74
2022/09/15 12:19:47;;;;;;;1.00;0.20;;;;;;;18.81;91.58;100418.69;20796102;28;20132;-74
2022/09/15 12:29:50;;;;;;;0.30;0.30;;;;;;;18.82;91.41;100417.69;20797268;28;20053;-74
2022/09/15 12:39:52;;;;;;;0.10;0.10;;;;;;;18.82;91.44;100415.00;20798397;28;20041;-74
2022/09/15 12:50:03;;;;;;;0.50;0.10;;;;;;;18.77;91.58;100411.91;20796176;28;20820;-75
2022/09/15 13:00:27;;;;;;;0.10;0.10;;;;;;;18.81;91.51;100414.16;20795581;28;20053;-75
2022/09/15 13:10:38;;;;;;;0.32;0.10;;;;;;;18.81;91.29;100418.69;20794272;28;20048;-74
2022/09/15 13:20:47;;;;;;;0.22;0.10;;;;;;;18.81;91.43;100419.56;20792985;28;20077;-74
2022/09/15 13:31:07;;;;;;;0.20;0.20;;;;;;;18.74;91.19;100444.59;20691043;28;20514;-74
2022/09/15 13:41:24;;;;;;;0.17;0.17;;;;;;;18.82;91.45;100471.63;20774961;28;20080;-74
2022/09/15 13:51:30;;;;;;;0.10;0.10;;;;;;;18.55;91.25;100411.34;20727987;28;20104;-75
2022/09/15 14:01:34;;;;;;;0.73;0.30;;;;;;;18.65;91.30;100409.47;20727309;28;20115;-74
2022/09/15 14:11:36;;;;;;;0.13;0.13;;;;;;;18.60;91.39;100400.13;20726326;28;20069;-75
2022/09/15 14:21:48;;;;;;;0.20;0.10;;;;;;;18.81;91.26;100442.97;20725670;28;20491;-74
2022/09/15 14:31:50;;;;;;;0.38;0.10;;;;;;;18.80;91.43;100461.00;20675735;28;20112;-74
2022/09/15 14:41:52;;;;;;;0.10;0.10;;;;;;;18.80;91.38;100460.16;20688663;28;20077;-74
2022/09/15 14:51:54;;;;;;;0.10;0.10;;;;;;;18.80;91.50;100468.25;20721192;28;20585;-74
2022/09/15 15:02:09;;;;;;;0.20;0.10;;;;;;;18.79;91.41;100463.84;20718681;28;20108;-74
2022/09/15 15:12:41;;;;;;;0.10;0.10;;;;;;;18.80;91.40;100460.16;20718364;28;20076;-74
2022/09/15 15:22:43;;;;;;;0.17;0.10;;;;;;;18.80;91.54;100465.53;20701851;28;20083;-74
2022/09/15 15:32:45;;;;;;;0.20;0.13;;;;;;;18.79;91.39;100464.72;20701067;28;20050;-74
2022/09/15 15:42:55;;;;;;;0.20;0.20;;;;;;;18.79;91.28;100485.44;20717938;28;20100;-74
2022/09/15 15:53:01;;;;;;;0.10;0.10;;;;;;;18.79;91.33;100493.50;20700222;28;20049;-74
2022/09/15 16:03:04;;;;;;;0.10;0.10;;;;;;;18.79;91.39;100496.22;20780960;28;20379;-74
2022/09/15 16:13:05;;;;;;;1.10;0.52;;;;;;;18.78;91.34;100481.03;20779240;28;20081;-74
2022/09/15 16:23:12;;;;;;;0.10;0.10;;;;;;;18.77;91.55;100479.34;20779735;28;20132;-75
2022/09/15 16:33:16;;;;;;;0.10;0.10;;;;;;;18.77;91.59;100465.84;20717617;28;20038;-74
2022/09/15 16:43:20;;;;;;;0.20;0.20;;;;;;;18.76;91.45;100467.69;20715316;28;20100;-75
2022/09/15 16:53:22;;;;;;;0.10;0.10;;;;;;;18.76;91.35;100474.94;20716332;28;20495;-74
2022/09/15 17:03:24;;;;;;;0.32;0.28;;;;;;;18.72;91.33;100474.38;20714535;28;20502;-75
2022/09/15 17:13:30;;;;;;;0.22;0.10;;;;;;;18.75;91.34;100487.56;20697130;28;20064;-74
2022/09/15 17:23:37;;;;;;;0.10;0.07;;;;;;;18.75;91.34;100479.47;20774902;28;20053;-75
2022/09/15 17:33:38;;;;;;;0.28;0.20;;;;;;;18.52;91.31;100446.69;20693546;28;20073;-74
2022/09/15 17:43:40;;;;;;;0.10;0.10;;;;;;;18.74;91.39;100493.13;20710098;28;20232;-74
2022/09/15 17:53:43;;;;;;;0.10;0.10;;;;;;;18.67;91.26;100493.75;20709567;28;20050;-75
2022/09/15 18:03:45;;;;;;;0.10;0.10;;;;;;;18.72;91.51;100505.91;20709220;28;20457;-74
2022/09/15 18:13:47;;;;;;;0.20;0.20;;;;;;;18.57;91.36;100487.56;20708609;28;20650;-74
2022/09/15 18:23:48;;;;;;;0.20;0.10;;;;;;;18.70;91.53;100501.53;20708384;28;20056;-75
2022/09/15 18:33:50;;;;;;;0.15;0.10;;;;;;;18.70;91.36;100504.22;20700941;28;20050;-74
2022/09/15 18:43:51;;;;;;;0.10;0.10;;;;;;;18.70;91.31;100520.41;20705153;28;20046;-75
2022/09/15 18:53:53;;;;;;;0.20;0.20;;;;;;;18.69;91.43;100518.69;20721044;28;20061;-74
2022/09/15 19:03:55;;;;;;;0.17;0.17;;;;;;;18.69;91.56;100529.50;20720145;28;20081;-75
2022/09/15 19:13:57;;;;;;;0.10;0.10;;;;;;;18.68;91.18;100535.88;20720104;28;20038;-75
2022/09/15 19:23:59;;;;;;;0.30;0.20;;;;;;;18.54;91.42;100523.75;20686073;28;20061;-75
2022/09/15 19:34:03;;;;;;;0.28;0.10;;;;;;;18.55;91.44;100521.88;20717949;28;20053;-75
2022/09/15 19:44:04;;;;;;;0.13;0.10;;;;;;;18.66;91.93;100548.66;20715756;28;20056;-75
2022/09/15 19:54:08;;;;;;;0.45;0.20;;;;;;;18.67;91.63;100542.28;20699684;28;20052;-74
2022/09/15 20:04:10;;;;;;;0.93;0.10;;;;;;;18.45;91.59;100510.31;20715679;28;20406;-75
2022/09/15 20:14:30;;;;;;;0.15;0.15;;;;;;;18.65;91.69;100544.28;20715514;28;20567;-75
2022/09/15 20:24:31;;;;;;;0.30;0.13;;;;;;;18.39;91.53;100491.03;20718001;28;20061;-75
2022/09/15 20:34:33;;;;;;;0.20;0.13;;;;;;;18.61;91.59;100537.47;20717542;28;20171;-74
2022/09/15 20:44:34;;;;;;;0.22;0.22;;;;;;;18.64;91.42;100526.41;20717019;28;20085;-74
2022/09/15 20:54:35;;;;;;;0.10;0.10;;;;;;;18.63;91.55;100534.63;20715992;28;20057;-75
2022/09/15 21:04:37;;;;;;;0.20;0.17;;;;;;;18.35;91.57;100494.22;20715494;28;20049;-74
2022/09/15 21:14:38;;;;;;;0.17;0.10;;;;;;;18.62;91.73;100568.84;20715030;28;20052;-75
2022/09/15 21:24:40;;;;;;;0.30;0.20;;;;;;;18.53;91.53;100531.97;20712668;28;20073;-75
2022/09/15 21:34:42;;;;;;;0.10;0.10;;;;;;;18.62;91.35;100554.50;20714129;28;20058;-77
2022/09/15 21:44:44;;;;;;;0.60;0.28;;;;;;;18.61;91.75;100553.66;20713246;28;20066;-76
2022/09/15 21:54:45;;;;;;;0.15;0.10;;;;;;;18.61;91.56;100567.13;20713597;28;20502;-75
2022/09/15 22:04:47;;;;;;;0.10;0.10;;;;;;;18.61;91.50;100569.84;20715445;28;20088;-74
2022/09/15 22:14:48;;;;;;;0.10;0.10;;;;;;;18.61;91.52;100561.75;20726742;28;20053;-75
2022/09/15 22:24:50;;;;;;;0.10;0.10;;;;;;;18.60;91.51;100559.19;20725564;28;20085;-74
2022/09/15 22:34:51;;;;;;;0.80;0.20;;;;;;;18.59;91.60;100544.88;20727176;28;20050;-74
2022/09/15 22:44:53;;;;;;;0.10;0.10;;;;;;;18.60;91.48;100548.41;20725891;28;20120;-75
2022/09/15 22:54:54;;;;;;;0.32;0.20;;;;;;;18.59;91.35;100549.41;20724738;28;20046;-75
2022/09/15 23:04:56;;;;;;;0.40;0.20;;;;;;;18.58;91.46;100548.56;20724796;28;20053;-75
2022/09/15 23:15:02;;;;;;;0.35;0.13;;;;;;;18.53;91.52;100532.81;20722367;28;20568;-75
2022/09/15 23:25:04;;;;;;;0.20;0.20;;;;;;;18.57;91.55;100544.19;20723616;28;20049;-75
2022/09/15 23:35:06;;;;;;;0.08;0.08;;;;;;;18.52;91.39;100531.13;20720276;28;20054;-75
2022/09/15 23:45:08;;;;;;;0.10;0.10;;;;;;;18.57;91.27;100544.19;20719662;28;20054;-74
2022/09/15 23:55:10;;;;;;;0.85;0.20;;;;;;;18.56;91.24;100550.56;20719929;28;20069;-74
